Terminal Aerodrome Forecast
Issued by NWS Twin Cities, MN

Home | Current Version | Previous Version | Text Only | Print | Product List | Glossary Off
Versions: 1 2 3 4 5 6 7 8 9 10 11 12 13 14 15 16 17 18 19 20 21 22 23 24 25 26 27 28 29 30 31

000
FTUS43 KMPX 242339
TAFMSP
TAF
KMSP 242339Z 2500/2606 04004KT P6SM SCT250
     FM250500 14004KT P6SM SCT100 BKN250
     FM251400 11010KT 5SM -SHRA BR VCTS SCT025 OVC050CB
     FM251900 13011KT P6SM OVC100
     FM260300 13007KT P6SM BKN250=

USA.gov is the U.S. government's official web portal to all federal, state and local government web resources and services.